Terminal Aerodrome Forecast
Issued by NWS

Home | Current Version | Previous Version | Text Only | Print | Product List | Glossary On
Versions: 1 2 3 4 5 6 7 8 9 10 11 12 13 14 15
000
FTUS43 KABR 250520
TAFATY
TAF
KATY 250520Z 2506/2606 VRB05KT P6SM SCT250
     FM251500 30013KT P6SM BKN100
     FM260200 VRB05KT P6SM BKN250=

USA.gov is the U.S. government's official web portal to all federal, state and local government web resources and services.